PILOTS ONLINE: 368    ATC ONLINE: 46

KSKA

Fairchild Air Force Base

Location

IATA SKA
City Spokane
Country  United States
Latitude 47° 36' 54" N
Longitude 117° 39' 21" W
Elevation 2461 ft
Type Large Airport

Map

Weather

METAR
2014/08/20 11:58
KSKA 201158Z AUTO 22010KT 10SM FEW085 16/10 A2976 RMK AO2 LTG DSNT E SLP063 T01570103 10189 20147 52014 $
TAF
2014/08/20 11:12
TAF KSKA 2011/2117 18005KT 9999 SCT080 QNH2973INS 
      BECMG 2016/2017 21012G18KT 9999 SCT100 QNH2980INS 
      BECMG 2103/2104 20006KT 9999 BKN080 QNH2985INS TX25/2100Z TN12/2112Z

Runways

05/23 13901 ft / 200 ft

Outbound flights

Callsign Flying to Pilot ATD/STD ETA Aircraft

Inbound flights

Callsign Flying from Pilot ATD ETA Aircraft